createdAt,value
2022-11-04T00:01:18.190Z,6.65
2022-11-04T00:03:45.316Z,6.45
2022-11-04T00:06:12.490Z,5.93
2022-11-04T00:08:39.610Z,6.25
2022-11-04T00:11:25.604Z,5.88
2022-11-04T00:13:52.730Z,6.63
2022-11-04T00:16:38.730Z,7.82
2022-11-04T00:19:05.834Z,6.43
2022-11-04T00:21:51.702Z,6.28
2022-11-04T00:24:37.256Z,5.82
2022-11-04T00:27:23.391Z,5.55
2022-11-04T00:29:50.541Z,6.38
2022-11-04T00:32:36.495Z,6.22
2022-11-04T00:35:03.711Z,6.35
2022-11-04T00:37:30.825Z,6.68
2022-11-04T00:39:57.907Z,6.85
2022-11-04T00:42:25.016Z,6.82
2022-11-04T00:44:52.143Z,6.13
2022-11-04T00:47:19.241Z,6.38
2022-11-04T00:49:46.329Z,6.93
2022-11-04T00:52:13.418Z,6.47
2022-11-04T00:54:40.706Z,6.55
2022-11-04T00:57:11.398Z,6.82
2022-11-04T00:59:39.793Z,7.00
2022-11-04T01:02:07.894Z,6.57
2022-11-04T01:04:35.167Z,6.40
2022-11-04T01:07:02.347Z,6.68
2022-11-04T01:09:29.477Z,7.45
2022-11-04T01:11:56.651Z,7.32
2022-11-04T01:14:23.787Z,7.05
2022-11-04T01:16:50.898Z,6.38
2022-11-04T01:19:18.262Z,6.88
2022-11-04T01:21:45.413Z,6.80
2022-11-04T01:24:12.620Z,8.32
2022-11-04T01:26:39.694Z,6.47
2022-11-04T01:29:06.864Z,6.45
2022-11-04T01:31:34.058Z,6.50
2022-11-04T01:34:01.207Z,6.93
2022-11-04T01:36:28.649Z,7.30
2022-11-04T01:38:57.094Z,6.45
2022-11-04T01:41:27.630Z,7.65
2022-11-04T01:43:55.895Z,7.05
2022-11-04T01:46:26.867Z,7.18
2022-11-04T01:48:56.140Z,6.78
2022-11-04T01:51:23.610Z,6.35
2022-11-04T01:53:52.088Z,7.45
2022-11-04T01:56:20.715Z,7.28
2022-11-04T01:58:51.150Z,7.28
2022-11-04T02:01:18.738Z,6.38
2022-11-04T02:03:51.224Z,7.15
2022-11-04T02:06:19.728Z,6.85
2022-11-04T02:08:46.989Z,6.25
2022-11-04T02:11:34.163Z,6.35
2022-11-04T02:14:01.612Z,6.53
2022-11-04T02:16:39.014Z,7.38
2022-11-04T02:19:39.551Z,6.53
2022-11-04T02:22:44.090Z,7.15
2022-11-04T02:25:26.465Z,6.65
2022-11-04T02:28:08.614Z,6.22
2022-11-04T02:30:44.474Z,7.28
2022-11-04T02:33:42.878Z,6.93
2022-11-04T02:36:21.794Z,7.43
2022-11-04T02:39:16.800Z,7.03
2022-11-04T02:41:57.234Z,7.50
2022-11-04T02:44:35.890Z,6.93
2022-11-04T02:47:06.510Z,7.93
2022-11-04T02:49:51.224Z,7.20
2022-11-04T02:52:39.903Z,6.68
2022-11-04T02:55:12.751Z,7.28
2022-11-04T02:57:41.981Z,7.13
2022-11-04T03:00:10.981Z,6.85
2022-11-04T03:02:41.719Z,6.70
2022-11-04T03:05:13.108Z,6.63
2022-11-04T03:07:42.006Z,7.55
2022-11-04T03:10:16.176Z,7.55
2022-11-04T03:12:58.273Z,6.97
2022-11-04T03:15:31.451Z,6.72
2022-11-04T03:18:29.221Z,7.75
2022-11-04T03:20:58.172Z,6.70
2022-11-04T03:23:25.805Z,7.25
2022-11-04T03:25:58.542Z,6.93
2022-11-04T03:28:49.497Z,7.20
2022-11-04T03:31:23.626Z,7.50
2022-11-04T03:33:52.427Z,7.45
2022-11-04T03:36:20.772Z,7.75
2022-11-04T03:38:47.919Z,7.32
2022-11-04T03:41:38.767Z,7.43
2022-11-04T03:44:05.854Z,7.63
2022-11-04T03:46:33.092Z,7.55
2022-11-04T03:49:01.108Z,7.35
2022-11-04T03:51:28.249Z,7.10
2022-11-04T03:53:55.696Z,7.00
2022-11-04T03:56:42.656Z,7.40
2022-11-04T03:59:33.917Z,7.57
2022-11-04T04:02:05.805Z,7.35
2022-11-04T04:04:36.454Z,7.97
2022-11-04T04:07:18.056Z,7.22
2022-11-04T04:09:50.870Z,7.40
2022-11-04T04:12:27.784Z,7.30
2022-11-04T04:14:59.231Z,7.53
2022-11-04T04:18:05.269Z,7.60
2022-11-04T04:20:35.549Z,6.33
2022-11-04T04:23:26.889Z,6.93
2022-11-04T04:26:16.221Z,7.30
2022-11-04T04:28:44.021Z,6.95
2022-11-04T04:31:12.442Z,7.63
2022-11-04T04:33:39.591Z,8.02
2022-11-04T04:36:09.353Z,7.40
2022-11-04T04:38:55.300Z,8.02
2022-11-04T04:41:48.512Z,7.82
2022-11-04T04:44:45.971Z,8.38
2022-11-04T04:47:20.051Z,7.15
2022-11-04T04:49:57.646Z,7.80
2022-11-04T04:52:31.554Z,7.53
2022-11-04T04:54:58.847Z,7.22
2022-11-04T04:57:26.083Z,7.57
2022-11-04T04:59:53.260Z,8.25
2022-11-04T05:02:20.567Z,6.70
2022-11-04T05:04:47.768Z,8.10
2022-11-04T05:07:14.966Z,6.97
2022-11-04T05:09:42.099Z,8.27
2022-11-04T05:12:10.065Z,7.70
2022-11-04T05:14:37.206Z,7.70
2022-11-04T05:17:04.719Z,8.57
2022-11-04T05:19:31.950Z,8.35
2022-11-04T05:21:59.217Z,7.93
2022-11-04T05:24:26.381Z,9.02
2022-11-04T05:26:53.509Z,8.55
2022-11-04T05:29:20.617Z,8.30
2022-11-04T05:31:47.762Z,7.85
2022-11-04T05:34:14.979Z,7.47
2022-11-04T05:36:42.172Z,8.63
2022-11-04T05:39:12.329Z,8.10
2022-11-04T05:41:39.421Z,7.60
2022-11-04T05:44:09.313Z,7.13
2022-11-04T05:46:36.533Z,7.82
2022-11-04T05:49:03.819Z,8.05
2022-11-04T05:51:32.832Z,8.07
2022-11-04T05:54:00.538Z,7.45
2022-11-04T05:56:27.663Z,8.60
2022-11-04T05:58:55.194Z,7.93
2022-11-04T06:01:29.363Z,7.88
2022-11-04T06:03:57.586Z,7.90
2022-11-04T06:06:25.999Z,7.65
2022-11-04T06:08:53.280Z,8.38
2022-11-04T06:11:20.965Z,8.35
2022-11-04T06:13:48.218Z,8.32
2022-11-04T06:16:15.319Z,8.05
2022-11-04T06:18:42.504Z,7.65
2022-11-04T06:21:13.166Z,9.05
2022-11-04T06:23:43.752Z,7.18
2022-11-04T06:26:12.048Z,8.10
2022-11-04T06:28:39.398Z,9.07
2022-11-04T06:31:09.005Z,9.43
2022-11-04T06:33:37.167Z,8.45
2022-11-04T06:36:06.476Z,8.07
2022-11-04T06:38:35.013Z,8.90
2022-11-04T06:41:02.458Z,8.70
2022-11-04T06:43:29.667Z,8.13
2022-11-04T06:45:58.045Z,8.63
2022-11-04T06:48:25.507Z,8.18
2022-11-04T06:50:52.810Z,8.27
2022-11-04T06:53:19.917Z,8.48
2022-11-04T06:55:47.104Z,8.75
2022-11-04T06:58:14.228Z,8.25
2022-11-04T07:00:41.358Z,8.85
2022-11-04T07:03:10.011Z,9.85
2022-11-04T07:05:37.618Z,9.43
2022-11-04T07:08:04.862Z,10.90
2022-11-04T07:10:32.041Z,11.48
2022-11-04T07:12:59.159Z,10.30
2022-11-04T07:15:27.558Z,12.07
2022-11-04T07:17:54.893Z,11.00
2022-11-04T07:20:22.005Z,9.85
2022-11-04T07:22:49.183Z,9.43
2022-11-04T07:25:16.276Z,10.52
2022-11-04T07:27:43.390Z,11.00
2022-11-04T07:30:10.960Z,10.48
2022-11-04T07:32:38.088Z,9.38
2022-11-04T07:35:05.861Z,10.90
2022-11-04T07:37:33.030Z,9.82
2022-11-04T07:40:00.173Z,10.23
2022-11-04T07:42:27.307Z,10.23
2022-11-04T07:44:54.475Z,10.65
2022-11-04T07:47:22.087Z,8.93
2022-11-04T07:49:49.207Z,11.45
2022-11-04T07:52:16.585Z,12.13
2022-11-04T07:54:43.847Z,10.20
2022-11-04T07:57:10.985Z,10.98
2022-11-04T07:59:38.198Z,12.93
2022-11-04T08:02:05.939Z,13.40
2022-11-04T08:04:33.217Z,10.80
2022-11-04T08:07:00.299Z,11.30
2022-11-04T08:09:27.492Z,10.02
2022-11-04T08:11:54.618Z,10.40
2022-11-04T08:14:21.894Z,9.65
2022-11-04T08:16:51.168Z,10.48
2022-11-04T08:19:18.324Z,9.95
2022-11-04T08:21:45.458Z,10.98
2022-11-04T08:24:12.590Z,10.90
2022-11-04T08:26:39.693Z,11.05
2022-11-04T08:29:10.229Z,10.48
2022-11-04T08:31:37.569Z,9.73
2022-11-04T08:34:06.143Z,10.38
2022-11-04T08:36:36.735Z,11.20
2022-11-04T08:39:10.302Z,12.02
2022-11-04T08:41:41.014Z,10.98
2022-11-04T08:44:08.902Z,11.55
2022-11-04T08:46:38.390Z,11.52
2022-11-04T08:49:09.940Z,11.38
2022-11-04T08:51:41.048Z,11.90
2022-11-04T08:54:08.282Z,11.50
2022-11-04T08:56:37.246Z,11.32
2022-11-04T08:59:05.025Z,10.55
2022-11-04T09:01:36.029Z,9.90
2022-11-04T09:04:04.752Z,10.20
2022-11-04T09:06:35.993Z,10.40
2022-11-04T09:09:04.969Z,9.82
2022-11-04T09:11:34.071Z,9.85
2022-11-04T09:14:01.539Z,8.80
2022-11-04T09:16:32.660Z,9.43
2022-11-04T09:19:00.073Z,9.25
2022-11-04T09:21:28.030Z,9.57
2022-11-04T09:23:55.742Z,9.65
2022-11-04T09:26:23.984Z,10.02
2022-11-04T09:28:55.326Z,9.75
2022-11-04T09:31:23.080Z,9.73
2022-11-04T09:33:50.443Z,10.10
2022-11-04T09:36:18.001Z,10.10
2022-11-04T09:38:45.434Z,10.05
2022-11-04T09:41:12.555Z,10.95
2022-11-04T09:44:19.584Z,9.93
2022-11-04T09:49:16.604Z,10.00
2022-11-04T09:51:55.271Z,8.70
2022-11-04T09:54:25.217Z,8.45
2022-11-04T09:56:53.230Z,9.60
2022-11-04T09:59:29.156Z,9.55
2022-11-04T10:02:12.033Z,10.27
2022-11-04T10:04:50.285Z,10.63
2022-11-04T10:07:36.897Z,11.23
2022-11-04T10:10:09.913Z,10.23
2022-11-04T10:12:48.831Z,12.32
2022-11-04T10:15:48.093Z,10.95
2022-11-04T10:18:43.126Z,11.73
2022-11-04T10:21:25.651Z,8.73
2022-11-04T10:24:07.190Z,8.50
2022-11-04T10:26:43.443Z,9.02
2022-11-04T10:29:25.374Z,9.35
2022-11-04T10:31:53.854Z,9.48
2022-11-04T10:34:29.575Z,9.30
2022-11-04T10:39:28.576Z,10.25
2022-11-04T10:41:58.072Z,10.50
2022-11-04T10:44:25.974Z,10.20
2022-11-04T10:47:15.716Z,9.80
2022-11-04T10:50:07.149Z,9.30
2022-11-04T10:52:37.718Z,7.53
2022-11-04T10:55:49.761Z,7.35
2022-11-04T10:58:24.150Z,7.45
2022-11-04T11:00:52.338Z,7.35
2022-11-04T11:03:34.283Z,7.10
2022-11-04T11:06:16.068Z,6.80
2022-11-04T11:08:44.154Z,6.63
2022-11-04T11:11:12.718Z,7.88
2022-11-04T11:13:41.931Z,7.90
2022-11-04T11:16:19.844Z,8.07
2022-11-04T11:19:14.443Z,7.30
2022-11-04T11:21:49.709Z,7.50
2022-11-04T11:24:27.491Z,7.80
2022-11-04T11:27:00.106Z,7.45
2022-11-04T11:29:29.633Z,8.95
2022-11-04T11:31:57.971Z,7.75
2022-11-04T11:34:32.256Z,8.20
2022-11-04T11:37:03.599Z,7.30
2022-11-04T11:39:32.410Z,6.82
2022-11-04T11:42:02.007Z,7.57
2022-11-04T11:44:33.018Z,7.20
2022-11-04T11:47:05.956Z,8.70
2022-11-04T11:49:37.130Z,7.45
2022-11-04T11:52:24.329Z,8.20
2022-11-04T11:54:53.514Z,8.38
2022-11-04T11:57:36.271Z,9.18
2022-11-04T12:03:21.089Z,10.32
2022-11-04T12:06:27.697Z,9.93
2022-11-04T12:12:12.948Z,10.52
2022-11-04T12:15:19.144Z,11.05
2022-11-04T12:17:55.253Z,10.75
2022-11-04T12:20:25.240Z,10.57
2022-11-04T12:23:18.214Z,10.32
2022-11-04T12:26:13.474Z,9.70
2022-11-04T12:29:01.733Z,8.35
2022-11-04T12:31:57.397Z,6.93
2022-11-04T12:34:45.328Z,7.80
2022-11-04T12:37:20.496Z,6.68
2022-11-04T12:40:16.923Z,6.50
2022-11-04T12:42:54.085Z,7.20
2022-11-04T12:45:24.939Z,6.22
2022-11-04T12:47:54.768Z,6.97
2022-11-04T12:50:46.843Z,6.60
2022-11-04T12:53:13.873Z,7.97
2022-11-04T12:55:46.624Z,7.40
2022-11-04T12:58:25.040Z,7.30
2022-11-04T13:01:01.736Z,7.30
2022-11-04T13:03:47.310Z,6.68
2022-11-04T13:06:18.852Z,7.22
2022-11-04T13:09:31.141Z,6.15
2022-11-04T13:12:05.155Z,7.22
2022-11-04T13:14:39.590Z,6.50
2022-11-04T13:17:10.066Z,9.55
2022-11-04T13:19:46.166Z,8.60
2022-11-04T13:22:22.984Z,7.90
2022-11-04T13:25:00.390Z,7.63
2022-11-04T13:27:33.195Z,7.65
2022-11-04T13:30:44.848Z,8.05
2022-11-04T13:33:36.014Z,7.38
2022-11-04T13:36:27.831Z,7.13
2022-11-04T13:39:02.065Z,8.55
2022-11-04T13:41:57.851Z,8.30
2022-11-04T13:44:27.827Z,7.93
2022-11-04T13:46:58.524Z,7.60
2022-11-04T13:49:32.281Z,7.50
2022-11-04T13:52:09.752Z,7.40
2022-11-04T13:54:42.818Z,7.78
2022-11-04T13:57:18.138Z,7.95
2022-11-04T14:00:13.537Z,8.50
2022-11-04T14:02:46.944Z,7.55
2022-11-04T14:05:29.490Z,8.07
2022-11-04T14:07:59.427Z,7.47
2022-11-04T14:10:53.841Z,8.88
2022-11-04T14:13:34.818Z,8.07
2022-11-04T14:16:17.592Z,8.43
2022-11-04T14:18:48.888Z,8.05
2022-11-04T14:21:18.401Z,8.95
2022-11-04T14:23:47.375Z,8.65
2022-11-04T14:26:16.586Z,8.00
2022-11-04T14:28:48.548Z,7.43
2022-11-04T14:31:34.895Z,8.35
2022-11-04T14:34:02.506Z,7.85
2022-11-04T14:36:32.921Z,8.00
2022-11-04T14:39:11.969Z,8.35
2022-11-04T14:41:58.433Z,8.45
2022-11-04T14:44:37.613Z,8.65
2022-11-04T14:47:26.796Z,8.13
2022-11-04T14:50:03.622Z,8.40
2022-11-04T14:52:34.108Z,7.70
2022-11-04T14:55:10.940Z,8.23
2022-11-04T14:57:46.106Z,8.40
2022-11-04T15:00:53.622Z,8.95
2022-11-04T15:04:08.681Z,9.00
2022-11-04T15:06:08.278Z,8.18
2022-11-04T15:08:41.312Z,8.63
2022-11-04T15:11:16.681Z,8.65
2022-11-04T15:13:56.318Z,7.32
2022-11-04T15:16:28.667Z,9.68
2022-11-04T15:18:57.529Z,9.32
2022-11-04T15:21:24.933Z,9.65
2022-11-04T15:23:55.884Z,8.80
2022-11-04T15:26:30.212Z,9.02
2022-11-04T15:28:59.491Z,9.27
2022-11-04T15:31:28.400Z,8.20
2022-11-04T15:34:00.834Z,8.45
2022-11-04T15:36:31.878Z,8.30
2022-11-04T15:39:03.141Z,8.30
2022-11-04T15:41:50.005Z,8.32
2022-11-04T15:44:31.565Z,7.43
2022-11-04T15:47:01.241Z,8.45
2022-11-04T15:49:30.495Z,7.47
2022-11-04T15:52:00.080Z,8.10
2022-11-04T15:54:33.093Z,8.10
2022-11-04T15:57:12.884Z,9.00
2022-11-04T16:00:01.337Z,7.25
2022-11-04T16:02:30.859Z,8.30
2022-11-04T16:05:16.042Z,7.97
2022-11-04T16:07:48.166Z,8.57
2022-11-04T16:10:36.101Z,7.82
2022-11-04T16:13:18.234Z,8.13
2022-11-04T16:15:49.333Z,8.23
2022-11-04T16:18:54.140Z,7.57
2022-11-04T16:21:30.717Z,8.23
2022-11-04T16:24:08.203Z,7.95
2022-11-04T16:26:44.533Z,7.93
2022-11-04T16:29:21.349Z,8.60
2022-11-04T16:32:23.710Z,7.50
2022-11-04T16:34:53.281Z,7.65
2022-11-04T16:37:20.385Z,9.05
2022-11-04T16:39:47.739Z,8.05
2022-11-04T16:42:15.482Z,8.55
2022-11-04T16:44:48.141Z,9.00
2022-11-04T16:47:15.300Z,8.85
2022-11-04T16:49:42.413Z,8.98
2022-11-04T16:52:14.087Z,7.75
2022-11-04T16:54:41.806Z,8.90
2022-11-04T16:57:11.797Z,8.43
2022-11-04T16:59:39.959Z,8.82
2022-11-04T17:02:30.910Z,8.57
2022-11-04T17:04:58.739Z,8.20
2022-11-04T17:07:46.876Z,8.48
2022-11-04T17:10:17.145Z,8.75
2022-11-04T17:12:44.515Z,8.98
2022-11-04T17:15:12.387Z,9.38
2022-11-04T17:17:40.096Z,8.45
2022-11-04T17:20:08.162Z,9.75
2022-11-04T17:22:36.762Z,9.40
2022-11-04T17:25:04.778Z,9.20
2022-11-04T17:27:32.035Z,9.35
2022-11-04T17:29:59.219Z,9.10
2022-11-04T17:32:26.346Z,9.55
2022-11-04T17:34:53.415Z,8.90
2022-11-04T17:37:20.515Z,9.13
2022-11-04T17:39:47.586Z,8.82
2022-11-04T17:42:33.011Z,8.43
2022-11-04T17:45:00.134Z,9.77
2022-11-04T17:47:27.267Z,8.88
2022-11-04T17:49:54.363Z,9.50
2022-11-04T17:52:22.935Z,9.07
2022-11-04T17:54:50.154Z,8.65
2022-11-04T17:57:17.250Z,9.10
2022-11-04T17:59:44.423Z,9.07
2022-11-04T18:02:11.801Z,7.75
2022-11-04T18:04:39.004Z,9.00
2022-11-04T18:07:06.101Z,8.95
2022-11-04T18:09:34.969Z,8.20
2022-11-04T18:12:37.708Z,9.68
2022-11-04T18:15:08.037Z,9.75
2022-11-04T18:17:42.572Z,9.88
2022-11-04T18:20:14.587Z,10.48
2022-11-04T18:22:42.491Z,9.23
2022-11-04T18:25:10.864Z,9.45
2022-11-04T18:27:38.158Z,9.00
2022-11-04T18:30:05.891Z,9.80
2022-11-04T18:32:33.196Z,8.77
2022-11-04T18:35:00.521Z,9.80
2022-11-04T18:37:28.469Z,9.20
2022-11-04T18:39:55.651Z,11.07
2022-11-04T18:42:23.276Z,9.82
2022-11-04T18:44:50.381Z,10.65
2022-11-04T18:47:17.987Z,9.88
2022-11-04T18:49:46.686Z,10.40
2022-11-04T18:52:13.831Z,10.63
2022-11-04T18:54:43.259Z,10.18
2022-11-04T18:57:11.879Z,9.73
2022-11-04T18:59:39.004Z,8.80
2022-11-04T19:02:06.693Z,10.50
2022-11-04T19:04:33.898Z,9.25
2022-11-04T19:07:01.641Z,9.45
2022-11-04T19:12:35.359Z,9.57
2022-11-04T19:15:04.378Z,10.05
2022-11-04T19:17:31.748Z,10.48
2022-11-04T19:19:58.868Z,9.85
2022-11-04T19:22:25.945Z,9.95
2022-11-04T19:24:53.349Z,9.50
2022-11-04T19:27:22.848Z,9.90
2022-11-04T19:29:50.014Z,9.40
2022-11-04T19:32:17.086Z,9.43
2022-11-04T19:34:44.302Z,10.63
2022-11-04T19:37:11.693Z,11.10
2022-11-04T19:39:39.201Z,10.32
2022-11-04T19:42:25.047Z,10.38
2022-11-04T19:44:52.147Z,9.32
2022-11-04T19:47:19.256Z,11.50
2022-11-04T19:49:46.404Z,10.95
2022-11-04T19:52:13.700Z,9.50
2022-11-04T19:54:40.828Z,8.77
2022-11-04T19:57:07.901Z,9.38
2022-11-04T19:59:34.991Z,8.60
2022-11-04T20:02:02.213Z,9.70
2022-11-04T20:04:29.458Z,9.27
2022-11-04T20:06:56.537Z,10.35
2022-11-04T20:09:23.666Z,10.20
2022-11-04T20:12:09.483Z,10.32
2022-11-04T20:14:36.603Z,17.08
2022-11-04T20:17:06.062Z,12.18
2022-11-04T20:19:38.525Z,10.43
2022-11-04T20:22:05.877Z,10.35
2022-11-04T20:24:33.055Z,11.23
2022-11-04T20:27:00.180Z,11.20
2022-11-04T20:29:27.284Z,11.52
2022-11-04T20:31:54.446Z,11.73
2022-11-04T20:34:21.538Z,11.52
2022-11-04T20:36:48.759Z,11.05
2022-11-04T20:39:17.894Z,11.68
2022-11-04T20:41:45.848Z,10.55
2022-11-04T20:44:14.281Z,11.95
2022-11-04T20:46:42.062Z,14.02
2022-11-04T20:49:09.337Z,12.05
2022-11-04T20:51:39.001Z,11.30
2022-11-04T20:54:07.093Z,10.50
2022-11-04T20:56:36.843Z,10.80
2022-11-04T20:59:05.105Z,11.48
2022-11-04T21:01:34.672Z,11.48
2022-11-04T21:04:07.496Z,12.05
2022-11-04T21:06:38.266Z,11.20
2022-11-04T21:09:07.424Z,11.18
2022-11-04T21:11:35.533Z,11.93
2022-11-04T21:14:03.426Z,11.90
2022-11-04T21:16:30.612Z,11.75
2022-11-04T21:18:57.906Z,12.13
2022-11-04T21:21:28.360Z,14.90
2022-11-04T21:23:59.604Z,12.57
2022-11-04T21:26:28.364Z,11.23
2022-11-04T21:29:01.390Z,11.65
2022-11-04T21:31:30.486Z,10.95
2022-11-04T21:33:58.178Z,12.73
2022-11-04T21:36:25.347Z,12.57
2022-11-04T21:38:52.493Z,12.50
2022-11-04T21:41:23.086Z,11.85
2022-11-04T21:43:57.350Z,11.93
2022-11-04T21:46:25.141Z,12.98
2022-11-04T21:48:52.312Z,12.43
2022-11-04T21:51:21.791Z,11.75
2022-11-04T21:53:49.002Z,12.90
2022-11-04T21:56:21.232Z,10.07
2022-11-04T21:58:48.495Z,12.15
2022-11-04T22:01:17.952Z,10.75
2022-11-04T22:03:49.359Z,13.98
2022-11-04T22:06:16.614Z,14.27
2022-11-04T22:08:46.016Z,12.65
2022-11-04T22:11:20.956Z,12.57
2022-11-04T22:13:48.213Z,11.90
2022-11-04T22:16:16.391Z,10.85
2022-11-04T22:18:43.866Z,10.93
2022-11-04T22:21:13.808Z,11.05
2022-11-04T22:23:41.311Z,11.20
2022-11-04T22:26:14.488Z,9.68
2022-11-04T22:28:41.979Z,11.23
2022-11-04T22:31:12.020Z,11.35
2022-11-04T22:33:39.235Z,10.55
2022-11-04T22:36:07.173Z,10.77
2022-11-04T22:38:35.010Z,10.23
2022-11-04T22:41:03.781Z,10.27
2022-11-04T22:43:30.843Z,11.57
2022-11-04T22:45:58.511Z,11.00
2022-11-04T22:48:25.642Z,10.52
2022-11-04T22:50:58.345Z,10.50
2022-11-04T22:53:25.610Z,9.40
2022-11-04T22:55:52.950Z,8.85
2022-11-04T22:58:20.031Z,8.63
2022-11-04T23:01:00.505Z,9.40
2022-11-04T23:03:28.168Z,9.45
2022-11-04T23:05:57.541Z,9.05
2022-11-04T23:08:25.524Z,9.32
2022-11-04T23:11:16.095Z,10.38
2022-11-04T23:14:09.200Z,10.40
2022-11-04T23:16:54.680Z,10.13
2022-11-04T23:19:24.682Z,10.68
2022-11-04T23:22:12.318Z,10.57
2022-11-04T23:24:58.264Z,11.13
2022-11-04T23:27:43.791Z,10.90
2022-11-04T23:30:21.091Z,10.07
2022-11-04T23:32:56.146Z,10.80
2022-11-04T23:35:49.511Z,10.82
2022-11-04T23:38:16.814Z,11.40
2022-11-04T23:41:04.344Z,11.45
2022-11-04T23:43:31.573Z,11.30
2022-11-04T23:46:17.686Z,10.55
2022-11-04T23:51:50.907Z,10.77
2022-11-04T23:54:42.456Z,10.73
2022-11-04T23:57:37.583Z,9.90
